createdAt,value
2023-02-19T00:06:38.857Z,9.4
2023-02-19T00:16:40.059Z,9.5
2023-02-19T00:26:41.418Z,9.6
2023-02-19T00:36:42.569Z,9.6
2023-02-19T00:46:43.947Z,9.6
2023-02-19T00:56:45.607Z,9.7
2023-02-19T01:06:47.627Z,9.7
2023-02-19T01:16:49.135Z,9.6
2023-02-19T01:26:50.745Z,9.6
2023-02-19T01:36:52.146Z,9.6
2023-02-19T01:46:53.521Z,9.5
2023-02-19T01:56:54.992Z,9.3
2023-02-19T02:06:56.235Z,9.2
2023-02-19T02:16:57.832Z,9.2
2023-02-19T02:26:59.368Z,9.2
2023-02-19T02:37:00.473Z,9.1
2023-02-19T02:47:02.290Z,9
2023-02-19T02:57:03.922Z,8.9
2023-02-19T03:07:05.275Z,8.9
2023-02-19T03:27:08.182Z,9
2023-02-19T03:37:09.950Z,8.9
2023-02-19T03:47:10.974Z,8.9
2023-02-19T03:57:12.384Z,8.9
2023-02-19T04:07:14.182Z,8.9
2023-02-19T04:17:15.412Z,8.8
2023-02-19T04:27:16.826Z,8.7
2023-02-19T04:37:18.091Z,8.8
2023-02-19T04:47:19.611Z,8.7
2023-02-19T04:57:21.175Z,8.7
2023-02-19T05:07:22.608Z,8.7
2023-02-19T05:17:24.172Z,8.6
2023-02-19T05:27:25.959Z,8.6
2023-02-19T05:37:27.238Z,8.6
2023-02-19T05:47:28.591Z,8.6
2023-02-19T05:57:30.589Z,8.5
2023-02-19T06:07:31.979Z,8.5
2023-02-19T06:17:33.071Z,8.5
2023-02-19T06:27:34.799Z,8.4
2023-02-19T06:37:36.112Z,8.3
2023-02-19T06:47:37.526Z,8.3
2023-02-19T06:57:39.571Z,8.2
2023-02-19T07:07:40.786Z,8.3
2023-02-19T07:17:42.416Z,8.3
2023-02-19T07:27:43.508Z,8.4
2023-02-19T07:37:45.260Z,8.4
2023-02-19T07:47:46.711Z,8.3
2023-02-19T07:57:47.887Z,8.2
2023-02-19T08:07:49.613Z,8.3
2023-02-19T08:17:51.081Z,8.4
2023-02-19T08:27:52.514Z,8.4
2023-02-19T08:37:54.248Z,8.4
2023-02-19T08:47:56.192Z,8.5
2023-02-19T08:57:58.070Z,8.4
2023-02-19T09:07:59.787Z,8.4
2023-02-19T09:18:01.826Z,8.5
2023-02-19T09:28:02.903Z,8.7
2023-02-19T09:38:04.417Z,8.7
2023-02-19T09:48:06.401Z,8.7
2023-02-19T09:58:08.389Z,8.5
2023-02-19T10:18:11.375Z,8.7
2023-02-19T10:28:13.181Z,8.6
2023-02-19T10:38:14.821Z,8.3
2023-02-19T10:48:16.635Z,6.7
2023-02-19T10:58:18.111Z,6.5
2023-02-19T11:08:19.279Z,6.4
2023-02-19T11:18:20.604Z,6.4
2023-02-19T11:28:21.844Z,6.5
2023-02-19T11:38:22.998Z,6.3
2023-02-19T11:48:25.076Z,6.4
2023-02-19T11:58:26.246Z,6.4
2023-02-19T12:08:27.822Z,6.6
2023-02-19T12:28:30.710Z,6.8
2023-02-19T12:38:32.625Z,6.9
2023-02-19T12:48:34.594Z,6.9
2023-02-19T13:08:42.019Z,6.8
2023-02-19T13:18:40.294Z,6.7
2023-02-19T13:28:42.034Z,6.8
2023-02-19T13:38:43.239Z,6.9
2023-02-19T13:39:27.545Z,6.9
2023-02-19T13:48:51.474Z,7
2023-02-19T13:58:53.293Z,6.9
2023-02-19T14:08:54.863Z,6.9
2023-02-19T14:18:56.355Z,7
2023-02-19T14:28:57.958Z,7
2023-02-19T14:38:59.060Z,6.9
2023-02-19T14:49:00.705Z,7
2023-02-19T14:59:02.585Z,6.9
2023-02-19T15:09:04.361Z,6.9
2023-02-19T15:29:08.143Z,6.9
2023-02-19T15:39:09.634Z,6.9
2023-02-19T15:49:11.185Z,7
2023-02-19T15:59:12.774Z,7.1
2023-02-19T16:09:13.880Z,7.4
2023-02-19T16:29:16.961Z,7.5
2023-02-19T16:39:18.972Z,7.5
2023-02-19T16:49:20.917Z,7.4
2023-02-19T16:59:22.125Z,7.4
2023-02-19T17:09:23.220Z,7.2
2023-02-19T17:19:25.177Z,7
2023-02-19T17:29:26.702Z,6.9
2023-02-19T17:39:28.441Z,6.9
2023-02-19T17:49:30.321Z,7
2023-02-19T17:59:32.274Z,6.9
2023-02-19T18:09:34.051Z,6.5
2023-02-19T18:29:36.640Z,6
2023-02-19T18:49:39.414Z,5.9
2023-02-19T18:59:40.612Z,5.8
2023-02-19T19:09:42.104Z,5.6
2023-02-19T19:19:43.883Z,5.4
2023-02-19T19:29:45.002Z,5.4
2023-02-19T19:39:46.190Z,5.3
2023-02-19T19:49:47.880Z,5.4
2023-02-19T19:59:49.195Z,5.5
2023-02-19T20:09:50.794Z,5.5
2023-02-19T20:29:54.096Z,5.5
2023-02-19T20:39:55.700Z,5.5
2023-02-19T20:49:57.484Z,5.5
2023-02-19T20:59:58.706Z,5.4
2023-02-19T21:10:00.664Z,5.3
2023-02-19T21:20:02.494Z,5.3
2023-02-19T21:30:03.770Z,5.2
2023-02-19T21:40:05.017Z,5.3
2023-02-19T21:50:06.522Z,5.3
2023-02-19T22:00:08.134Z,5.3
2023-02-19T22:10:09.575Z,5.3
2023-02-19T22:20:11.240Z,5.4
2023-02-19T22:30:12.969Z,5.4
2023-02-19T22:40:14.800Z,5.4
2023-02-19T22:50:16.116Z,5.3
2023-02-19T23:00:17.671Z,5.2
2023-02-19T23:10:19.160Z,5
2023-02-19T23:20:21.213Z,5
2023-02-19T23:30:22.340Z,4.9
2023-02-19T23:40:24.190Z,4.8
2023-02-19T23:50:25.256Z,4.7
